createdAt,value
2023-03-05T00:01:07.592Z,2.40
2023-03-05T00:03:35.372Z,2.30
2023-03-05T00:06:03.382Z,1.53
2023-03-05T00:08:31.596Z,2.13
2023-03-05T00:11:01.345Z,2.00
2023-03-05T00:13:31.634Z,2.43
2023-03-05T00:15:59.290Z,1.93
2023-03-05T00:18:26.870Z,1.30
2023-03-05T00:20:54.509Z,1.90
2023-03-05T00:23:22.230Z,1.27
2023-03-05T00:25:49.795Z,1.73
2023-03-05T00:28:18.722Z,1.70
2023-03-05T00:30:46.428Z,1.20
2023-03-05T00:33:14.650Z,1.70
2023-03-05T00:35:42.996Z,2.13
2023-03-05T00:38:10.964Z,2.03
2023-03-05T00:40:38.984Z,1.57
2023-03-05T00:43:07.219Z,2.50
2023-03-05T00:45:36.331Z,1.40
2023-03-05T00:48:04.179Z,1.90
2023-03-05T00:50:31.718Z,1.93
2023-03-05T00:52:59.438Z,2.00
2023-03-05T00:55:27.035Z,1.40
2023-03-05T00:57:54.502Z,2.30
2023-03-05T01:00:22.502Z,1.60
2023-03-05T01:02:51.341Z,1.60
2023-03-05T01:05:19.098Z,1.87
2023-03-05T01:07:46.733Z,1.63
2023-03-05T01:10:14.689Z,1.70
2023-03-05T01:12:42.256Z,1.83
2023-03-05T01:15:10.387Z,2.00
2023-03-05T01:17:37.879Z,1.73
2023-03-05T01:20:08.039Z,2.07
2023-03-05T01:22:35.633Z,2.10
2023-03-05T01:25:03.191Z,2.40
2023-03-05T01:27:30.833Z,2.10
2023-03-05T01:29:58.500Z,1.33
2023-03-05T01:32:26.086Z,2.27
2023-03-05T01:34:54.061Z,1.80
2023-03-05T01:37:22.916Z,2.93
2023-03-05T01:39:50.675Z,3.43
2023-03-05T01:42:19.404Z,2.13
2023-03-05T01:45:02.045Z,4.30
2023-03-05T01:47:29.734Z,2.50
2023-03-05T01:49:57.608Z,2.13
2023-03-05T01:52:28.456Z,2.20
2023-03-05T01:54:59.012Z,2.90
2023-03-05T01:57:29.556Z,2.50
2023-03-05T01:59:59.139Z,2.23
2023-03-05T02:02:26.797Z,2.53
2023-03-05T02:04:57.214Z,2.77
2023-03-05T02:07:26.283Z,2.80
2023-03-05T02:09:53.928Z,2.33
2023-03-05T02:12:21.714Z,2.83
2023-03-05T02:14:58.408Z,3.30
2023-03-05T02:17:28.394Z,2.70
2023-03-05T02:19:58.155Z,2.87
2023-03-05T02:22:26.992Z,3.07
2023-03-05T02:24:54.425Z,2.80
2023-03-05T02:27:24.795Z,2.63
2023-03-05T02:29:53.446Z,2.80
2023-03-05T02:32:21.502Z,2.90
2023-03-05T02:34:49.139Z,2.10
2023-03-05T02:37:17.022Z,2.00
2023-03-05T02:39:46.188Z,1.90
2023-03-05T02:42:13.903Z,1.60
2023-03-05T02:44:41.509Z,1.70
2023-03-05T02:47:09.221Z,1.97
2023-03-05T02:49:37.346Z,1.60
2023-03-05T02:52:05.336Z,1.40
2023-03-05T02:54:32.903Z,1.83
2023-03-05T02:57:01.902Z,1.70
2023-03-05T02:59:29.975Z,1.87
2023-03-05T03:01:57.629Z,2.20
2023-03-05T03:04:25.961Z,2.20
2023-03-05T03:06:53.636Z,1.93
2023-03-05T03:09:21.185Z,2.00
2023-03-05T03:11:48.822Z,2.60
2023-03-05T03:14:20.294Z,2.50
2023-03-05T03:16:48.022Z,2.03
2023-03-05T03:19:16.426Z,2.20
2023-03-05T03:21:44.092Z,2.73
2023-03-05T03:24:11.931Z,2.93
2023-03-05T03:26:39.575Z,2.53
2023-03-05T03:29:07.249Z,1.97
2023-03-05T03:31:36.319Z,2.53
2023-03-05T03:34:04.395Z,2.40
2023-03-05T03:36:32.186Z,2.13
2023-03-05T03:38:59.976Z,2.13
2023-03-05T03:41:27.581Z,2.37
2023-03-05T03:43:55.135Z,1.70
2023-03-05T03:46:22.817Z,1.63
2023-03-05T03:48:52.395Z,2.03
2023-03-05T03:51:19.946Z,2.20
2023-03-05T03:53:47.686Z,2.03
2023-03-05T03:56:15.387Z,2.60
2023-03-05T03:58:43.102Z,2.60
2023-03-05T04:01:10.636Z,2.40
2023-03-05T04:03:38.486Z,2.60
2023-03-05T04:06:07.887Z,4.40
2023-03-05T04:08:35.506Z,2.77
2023-03-05T04:11:03.371Z,2.97
2023-03-05T04:13:31.095Z,2.83
2023-03-05T04:15:58.858Z,2.23
2023-03-05T04:18:26.674Z,2.77
2023-03-05T04:20:54.297Z,2.37
2023-03-05T04:23:23.178Z,3.60
2023-03-05T04:25:50.725Z,4.17
2023-03-05T04:28:18.744Z,3.80
2023-03-05T04:30:46.421Z,4.07
2023-03-05T04:33:14.111Z,4.13
2023-03-05T04:35:41.934Z,5.23
2023-03-05T04:38:09.873Z,5.27
2023-03-05T04:40:38.953Z,4.80
2023-03-05T04:43:06.925Z,6.20
2023-03-05T04:45:35.310Z,5.70
2023-03-05T04:48:03.213Z,5.20
2023-03-05T04:50:30.851Z,5.63
2023-03-05T04:52:58.489Z,4.43
2023-03-05T04:55:26.068Z,5.10
2023-03-05T04:57:55.044Z,5.60
2023-03-05T05:00:23.312Z,4.40
2023-03-05T05:02:52.741Z,4.67
2023-03-05T05:05:22.155Z,5.00
2023-03-05T05:07:49.953Z,4.40
2023-03-05T05:10:17.681Z,3.03
2023-03-05T05:12:45.347Z,3.00
2023-03-05T05:15:14.475Z,3.77
2023-03-05T05:17:42.010Z,2.47
2023-03-05T05:20:12.086Z,3.17
2023-03-05T05:22:39.705Z,3.53
2023-03-05T05:25:07.625Z,2.60
2023-03-05T05:27:35.315Z,2.80
2023-03-05T05:30:04.107Z,2.70
2023-03-05T05:32:33.088Z,2.57
2023-03-05T05:35:01.336Z,3.57
2023-03-05T05:37:28.948Z,2.63
2023-03-05T05:39:56.632Z,2.43
2023-03-05T05:42:25.248Z,2.67
2023-03-05T05:44:53.283Z,3.00
2023-03-05T05:47:20.855Z,1.83
2023-03-05T05:49:50.000Z,1.90
2023-03-05T05:52:17.555Z,2.70
2023-03-05T05:54:45.149Z,1.70
2023-03-05T05:57:12.650Z,2.10
2023-03-05T05:59:40.301Z,1.97
2023-03-05T06:02:08.753Z,2.27
2023-03-05T06:04:37.060Z,1.73
2023-03-05T06:07:06.016Z,1.87
2023-03-05T06:09:33.659Z,1.53
2023-03-05T06:12:01.186Z,2.80
2023-03-05T06:14:28.797Z,0.83
2023-03-05T06:16:56.522Z,2.27
2023-03-05T06:19:24.502Z,1.67
2023-03-05T06:21:52.103Z,1.50
2023-03-05T06:24:22.231Z,1.40
2023-03-05T06:26:49.766Z,1.20
2023-03-05T06:29:17.385Z,1.30
2023-03-05T06:31:45.053Z,1.20
2023-03-05T06:34:12.874Z,2.00
2023-03-05T06:36:42.129Z,0.97
2023-03-05T06:39:09.774Z,2.10
2023-03-05T06:41:38.774Z,1.23
2023-03-05T06:44:06.701Z,1.17
2023-03-05T06:46:35.386Z,2.53
2023-03-05T06:49:05.183Z,1.43
2023-03-05T06:51:34.132Z,1.37
2023-03-05T06:54:03.121Z,2.20
2023-03-05T06:56:30.769Z,1.63
2023-03-05T06:58:59.719Z,1.40
2023-03-05T07:01:27.462Z,1.33
2023-03-05T07:03:58.842Z,0.90
2023-03-05T07:06:27.424Z,1.00
2023-03-05T07:08:56.072Z,1.10
2023-03-05T07:11:24.110Z,1.50
2023-03-05T07:13:52.048Z,1.30
2023-03-05T07:16:23.005Z,1.10
2023-03-05T07:18:51.026Z,0.60
2023-03-05T07:21:20.583Z,1.60
2023-03-05T07:23:48.378Z,1.20
2023-03-05T07:26:16.028Z,0.77
2023-03-05T07:28:44.128Z,1.27
2023-03-05T07:31:14.752Z,1.10
2023-03-05T07:33:43.666Z,2.13
2023-03-05T07:36:12.197Z,1.40
2023-03-05T07:38:40.009Z,1.53
2023-03-05T07:41:09.333Z,1.50
2023-03-05T07:43:37.112Z,1.10
2023-03-05T07:46:05.782Z,1.37
2023-03-05T07:48:33.521Z,1.17
2023-03-05T07:51:03.661Z,1.83
2023-03-05T07:53:31.304Z,1.43
2023-03-05T07:55:59.012Z,2.27
2023-03-05T07:58:26.609Z,1.07
2023-03-05T08:00:54.733Z,1.17
2023-03-05T08:03:22.369Z,1.23
2023-03-05T08:05:50.165Z,1.13
2023-03-05T08:08:19.427Z,1.00
2023-03-05T08:10:47.167Z,1.23
2023-03-05T08:13:14.742Z,1.23
2023-03-05T08:15:42.267Z,1.10
2023-03-05T08:18:09.759Z,1.10
2023-03-05T08:20:37.635Z,1.37
2023-03-05T08:23:05.166Z,2.40
2023-03-05T08:25:33.960Z,1.37
2023-03-05T08:28:01.429Z,2.57
2023-03-05T08:30:29.178Z,1.93
2023-03-05T08:32:57.329Z,1.70
2023-03-05T08:35:24.990Z,2.67
2023-03-05T08:37:52.681Z,1.80
2023-03-05T08:40:20.542Z,1.40
2023-03-05T08:42:51.877Z,1.90
2023-03-05T08:45:19.626Z,1.27
2023-03-05T08:47:47.113Z,1.97
2023-03-05T08:50:14.568Z,1.53
2023-03-05T08:52:42.086Z,2.13
2023-03-05T08:55:10.265Z,1.37
2023-03-05T08:57:37.920Z,3.90
2023-03-05T09:00:10.136Z,2.50
2023-03-05T09:02:37.823Z,1.20
2023-03-05T09:05:05.839Z,1.63
2023-03-05T09:07:33.349Z,1.47
2023-03-05T09:10:00.843Z,2.00
2023-03-05T09:12:30.502Z,1.50
2023-03-05T09:14:58.206Z,2.50
2023-03-05T09:17:27.168Z,2.43
2023-03-05T09:19:54.665Z,1.77
2023-03-05T09:22:22.268Z,2.00
2023-03-05T09:24:50.175Z,1.43
2023-03-05T09:27:17.821Z,2.40
2023-03-05T09:29:45.658Z,2.00
2023-03-05T09:32:13.287Z,2.23
2023-03-05T09:34:42.188Z,2.00
2023-03-05T09:37:09.994Z,1.40
2023-03-05T09:39:37.646Z,2.00
2023-03-05T09:42:28.122Z,2.37
2023-03-05T09:45:04.042Z,2.33
2023-03-05T09:47:47.844Z,2.00
2023-03-05T09:50:31.867Z,1.77
2023-03-05T09:53:04.212Z,2.10
2023-03-05T09:55:36.646Z,1.30
2023-03-05T09:58:06.722Z,1.77
2023-03-05T10:00:37.225Z,1.10
2023-03-05T10:03:08.044Z,1.30
2023-03-05T10:05:50.337Z,1.63
2023-03-05T10:08:20.469Z,1.30
2023-03-05T10:10:51.144Z,1.80
2023-03-05T10:13:24.802Z,1.60
2023-03-05T10:15:59.482Z,1.70
2023-03-05T10:18:31.806Z,1.70
2023-03-05T10:21:02.855Z,1.43
2023-03-05T10:23:45.568Z,2.60
2023-03-05T10:26:21.942Z,1.30
2023-03-05T10:28:56.105Z,1.37
2023-03-05T10:31:42.394Z,1.40
2023-03-05T10:34:23.724Z,2.53
2023-03-05T10:37:07.325Z,1.13
2023-03-05T10:39:45.487Z,1.10
2023-03-05T10:42:21.275Z,1.20
2023-03-05T10:44:50.913Z,1.40
2023-03-05T10:47:25.497Z,1.00
2023-03-05T10:49:54.410Z,1.40
2023-03-05T10:52:28.552Z,1.33
2023-03-05T10:54:56.405Z,1.40
2023-03-05T10:57:25.729Z,1.30
2023-03-05T10:59:54.638Z,1.27
2023-03-05T11:02:23.090Z,1.80
2023-03-05T11:04:54.745Z,1.30
2023-03-05T11:07:37.948Z,1.00
2023-03-05T11:10:15.728Z,0.60
2023-03-05T11:12:44.952Z,1.53
2023-03-05T11:15:30.776Z,1.20
2023-03-05T11:18:09.026Z,1.30
2023-03-05T11:20:37.870Z,1.40
2023-03-05T11:23:11.754Z,1.10
2023-03-05T11:26:07.437Z,1.40
2023-03-05T11:28:37.557Z,1.23
2023-03-05T11:31:09.513Z,1.03
2023-03-05T11:33:38.312Z,1.10
2023-03-05T11:36:25.060Z,1.17
2023-03-05T11:38:56.560Z,1.83
2023-03-05T11:41:30.753Z,2.10
2023-03-05T11:43:59.510Z,1.20
2023-03-05T11:46:27.485Z,1.43
2023-03-05T11:48:55.564Z,1.30
2023-03-05T11:51:27.394Z,1.40
2023-03-05T11:54:01.664Z,1.73
2023-03-05T11:56:31.549Z,1.23
2023-03-05T11:59:02.936Z,1.30
2023-03-05T12:01:33.256Z,1.60
2023-03-05T12:04:01.532Z,1.40
2023-03-05T12:06:30.924Z,1.80
2023-03-05T12:09:04.745Z,1.47
2023-03-05T12:11:33.801Z,1.60
2023-03-05T12:14:05.214Z,1.77
2023-03-05T12:16:38.210Z,1.77
2023-03-05T12:19:35.664Z,1.93
2023-03-05T12:22:04.173Z,1.73
2023-03-05T12:24:40.042Z,2.23
2023-03-05T12:27:14.811Z,1.60
2023-03-05T12:29:52.552Z,1.60
2023-03-05T12:33:00.648Z,1.13
2023-03-05T12:35:35.878Z,1.10
2023-03-05T12:38:24.487Z,1.10
2023-03-05T12:41:42.203Z,1.00
2023-03-05T12:44:20.731Z,0.70
2023-03-05T12:47:17.685Z,0.50
2023-03-05T12:49:47.069Z,0.53
2023-03-05T12:52:22.883Z,0.90
2023-03-05T12:55:15.794Z,0.70
2023-03-05T12:57:46.630Z,1.13
2023-03-05T13:00:21.479Z,0.90
2023-03-05T13:02:56.023Z,0.67
2023-03-05T13:05:27.486Z,0.77
2023-03-05T13:08:10.842Z,1.27
2023-03-05T13:10:38.432Z,0.97
2023-03-05T13:13:07.344Z,0.90
2023-03-05T13:15:35.374Z,17.77
2023-03-05T13:18:07.510Z,1.60
2023-03-05T13:20:37.683Z,0.90
2023-03-05T13:23:17.012Z,4.70
2023-03-05T13:25:45.240Z,5.63
2023-03-05T13:28:15.939Z,1.10
2023-03-05T13:30:46.719Z,0.60
2023-03-05T13:33:19.320Z,1.23
2023-03-05T13:35:47.566Z,2.87
2023-03-05T13:38:23.875Z,1.83
2023-03-05T13:41:09.054Z,0.80
2023-03-05T13:43:44.682Z,0.97
2023-03-05T13:46:12.393Z,0.93
2023-03-05T13:48:40.117Z,1.13
2023-03-05T13:51:09.470Z,0.80
2023-03-05T13:53:37.157Z,0.90
2023-03-05T13:56:06.831Z,0.90
2023-03-05T13:58:53.581Z,1.13
2023-03-05T14:01:30.071Z,0.90
2023-03-05T14:04:00.818Z,1.30
2023-03-05T14:06:30.717Z,1.10
2023-03-05T14:09:04.298Z,2.50
2023-03-05T14:11:31.858Z,1.20
2023-03-05T14:14:06.387Z,1.07
2023-03-05T14:16:33.932Z,0.90
2023-03-05T14:19:03.229Z,1.00
2023-03-05T14:21:44.842Z,0.97
2023-03-05T14:24:14.258Z,0.70
2023-03-05T14:26:49.271Z,0.90
2023-03-05T14:29:21.013Z,1.20
2023-03-05T14:31:51.285Z,1.10
2023-03-05T14:34:25.569Z,0.97
2023-03-05T14:36:55.542Z,1.03
2023-03-05T14:39:31.292Z,0.80
2023-03-05T14:42:25.340Z,3.23
2023-03-05T14:44:55.712Z,0.70
2023-03-05T14:47:23.653Z,0.60
2023-03-05T14:49:51.437Z,0.80
2023-03-05T14:52:21.287Z,1.10
2023-03-05T14:54:49.199Z,1.00
2023-03-05T14:57:21.084Z,1.20
2023-03-05T14:59:48.623Z,0.80
2023-03-05T15:02:19.022Z,1.07
2023-03-05T15:04:47.271Z,0.90
2023-03-05T15:07:18.676Z,1.00
2023-03-05T15:09:46.365Z,0.70
2023-03-05T15:12:15.868Z,0.87
2023-03-05T15:14:43.713Z,0.73
2023-03-05T15:17:15.665Z,1.40
2023-03-05T15:19:44.658Z,1.30
2023-03-05T15:22:12.937Z,1.23
2023-03-05T15:24:40.873Z,1.30
2023-03-05T15:27:08.862Z,1.53
2023-03-05T15:29:36.728Z,0.80
2023-03-05T15:32:05.598Z,1.30
2023-03-05T15:34:34.689Z,2.30
2023-03-05T15:37:04.482Z,1.20
2023-03-05T15:39:32.135Z,1.03
2023-03-05T15:42:00.289Z,1.30
2023-03-05T15:44:28.416Z,0.80
2023-03-05T15:46:56.738Z,1.10
2023-03-05T15:49:25.885Z,1.27
2023-03-05T15:51:54.987Z,1.23
2023-03-05T15:54:23.934Z,0.90
2023-03-05T15:56:52.025Z,1.00
2023-03-05T15:59:19.594Z,1.97
2023-03-05T16:01:50.750Z,1.57
2023-03-05T16:04:18.970Z,1.10
2023-03-05T16:06:48.281Z,1.10
2023-03-05T16:09:16.652Z,1.63
2023-03-05T16:11:48.062Z,1.37
2023-03-05T16:14:19.015Z,1.10
2023-03-05T16:16:46.797Z,1.20
2023-03-05T16:19:15.410Z,1.80
2023-03-05T16:21:43.112Z,0.90
2023-03-05T16:24:10.960Z,1.27
2023-03-05T16:26:39.202Z,1.20
2023-03-05T16:29:08.476Z,1.80
2023-03-05T16:31:38.096Z,4.43
2023-03-05T16:34:06.210Z,1.50
2023-03-05T16:36:35.584Z,0.93
2023-03-05T16:39:05.362Z,1.87
2023-03-05T16:41:33.276Z,1.00
2023-03-05T16:44:01.226Z,2.10
2023-03-05T16:46:33.966Z,1.30
2023-03-05T16:49:02.550Z,2.10
2023-03-05T16:51:30.397Z,1.70
2023-03-05T16:53:58.306Z,1.80
2023-03-05T16:56:26.428Z,1.37
2023-03-05T16:58:56.174Z,1.23
2023-03-05T17:01:24.621Z,1.13
2023-03-05T17:03:53.703Z,1.03
2023-03-05T17:06:22.816Z,1.20
2023-03-05T17:08:51.082Z,2.00
2023-03-05T17:11:18.956Z,1.37
2023-03-05T17:13:48.881Z,1.40
2023-03-05T17:16:19.010Z,1.80
2023-03-05T17:18:46.874Z,1.23
2023-03-05T17:21:16.972Z,1.47
2023-03-05T17:23:44.650Z,1.20
2023-03-05T17:26:15.027Z,2.17
2023-03-05T17:28:42.885Z,1.40
2023-03-05T17:31:11.093Z,1.77
2023-03-05T17:33:39.347Z,2.13
2023-03-05T17:36:08.059Z,1.70
2023-03-05T17:38:37.213Z,1.40
2023-03-05T17:41:04.839Z,1.80
2023-03-05T17:43:32.602Z,2.03
2023-03-05T17:46:01.293Z,1.60
2023-03-05T17:48:29.351Z,1.30
2023-03-05T17:50:57.383Z,1.70
2023-03-05T17:53:25.063Z,2.10
2023-03-05T17:55:54.186Z,2.03
2023-03-05T17:58:23.380Z,2.13
2023-03-05T18:00:51.227Z,2.23
2023-03-05T18:03:18.837Z,1.77
2023-03-05T18:05:46.546Z,1.80
2023-03-05T18:08:15.540Z,8.33
2023-03-05T18:10:43.540Z,3.60
2023-03-05T18:13:12.437Z,2.53
2023-03-05T18:15:42.791Z,2.83
2023-03-05T18:18:10.457Z,2.10
2023-03-05T18:20:38.266Z,2.30
2023-03-05T18:23:06.653Z,2.33
2023-03-05T18:25:34.616Z,2.70
2023-03-05T18:28:03.519Z,2.23
2023-03-05T18:30:33.660Z,2.17
2023-03-05T18:33:02.310Z,2.13
2023-03-05T18:35:30.350Z,2.90
2023-03-05T18:37:58.229Z,1.80
2023-03-05T18:40:29.527Z,2.27
2023-03-05T18:42:57.207Z,2.10
2023-03-05T18:45:24.914Z,2.07
2023-03-05T18:47:54.298Z,1.70
2023-03-05T18:50:25.257Z,2.07
2023-03-05T18:52:53.735Z,2.10
2023-03-05T18:55:23.284Z,2.13
2023-03-05T18:57:51.258Z,1.93
2023-03-05T19:00:21.129Z,2.60
2023-03-05T19:02:48.883Z,1.93
2023-03-05T19:05:18.497Z,2.37
2023-03-05T19:07:46.502Z,1.90
2023-03-05T19:10:14.959Z,3.33
2023-03-05T19:12:49.758Z,2.03
2023-03-05T19:15:17.923Z,2.50
2023-03-05T19:17:45.623Z,1.97
2023-03-05T19:20:14.037Z,2.13
2023-03-05T19:22:43.444Z,2.30
2023-03-05T19:25:12.233Z,2.13
2023-03-05T19:27:40.375Z,2.97
2023-03-05T19:30:09.738Z,3.30
2023-03-05T19:32:37.674Z,5.03
2023-03-05T19:35:06.245Z,3.27
2023-03-05T19:37:34.113Z,5.33
2023-03-05T19:40:04.041Z,4.27
2023-03-05T19:42:31.661Z,3.77
2023-03-05T19:45:00.165Z,4.67
2023-03-05T19:47:28.023Z,3.53
2023-03-05T19:49:55.927Z,3.33
2023-03-05T19:52:23.784Z,3.37
2023-03-05T19:54:51.525Z,3.80
2023-03-05T19:57:20.666Z,3.67
2023-03-05T19:59:48.821Z,4.00
2023-03-05T20:02:19.349Z,3.27
2023-03-05T20:04:47.068Z,3.90
2023-03-05T20:07:14.729Z,4.47
2023-03-05T20:09:42.557Z,4.80
2023-03-05T20:12:10.368Z,5.27
2023-03-05T20:14:39.428Z,3.53
2023-03-05T20:17:07.391Z,3.37
2023-03-05T20:19:35.093Z,4.37
2023-03-05T20:22:03.036Z,3.20
2023-03-05T20:24:30.670Z,3.70
2023-03-05T20:26:58.399Z,4.50
2023-03-05T20:29:26.216Z,4.30
2023-03-05T20:31:56.828Z,5.10
2023-03-05T20:34:26.980Z,6.23
2023-03-05T20:36:55.053Z,6.10
2023-03-05T20:39:22.805Z,4.63
2023-03-05T20:41:51.231Z,4.90
2023-03-05T20:44:18.772Z,4.80
2023-03-05T20:46:53.038Z,5.53
2023-03-05T20:49:22.935Z,4.50
2023-03-05T20:51:51.078Z,5.77
2023-03-05T20:54:19.817Z,6.23
2023-03-05T20:56:47.814Z,5.23
2023-03-05T20:59:16.789Z,5.77
2023-03-05T21:01:44.716Z,5.40
2023-03-05T21:04:12.264Z,6.40
2023-03-05T21:06:41.320Z,5.97
2023-03-05T21:09:08.887Z,6.27
2023-03-05T21:11:37.186Z,6.20
2023-03-05T21:14:05.040Z,6.70
2023-03-05T21:16:32.894Z,6.83
2023-03-05T21:19:00.755Z,6.53
2023-03-05T21:21:28.412Z,7.30
2023-03-05T21:23:57.239Z,7.03
2023-03-05T21:26:24.838Z,6.77
2023-03-05T21:28:52.646Z,8.07
2023-03-05T21:31:22.592Z,7.53
2023-03-05T21:33:50.569Z,7.63
2023-03-05T21:36:19.695Z,8.90
2023-03-05T21:38:47.376Z,8.70
2023-03-05T21:41:18.012Z,8.80
2023-03-05T21:43:45.727Z,9.87
2023-03-05T21:46:14.891Z,9.40
2023-03-05T21:48:42.700Z,10.10
2023-03-05T21:51:12.551Z,10.03
2023-03-05T21:53:41.678Z,12.03
2023-03-05T21:56:21.951Z,10.80
2023-03-05T21:58:51.591Z,10.30
2023-03-05T22:01:21.138Z,10.70
2023-03-05T22:03:49.737Z,12.13
2023-03-05T22:06:18.451Z,11.30
2023-03-05T22:08:47.025Z,10.57
2023-03-05T22:11:16.604Z,10.63
2023-03-05T22:13:44.395Z,10.77
2023-03-05T22:16:15.509Z,10.63
2023-03-05T22:18:43.156Z,10.50
2023-03-05T22:21:17.960Z,9.53
2023-03-05T22:23:45.772Z,11.23
2023-03-05T22:26:13.479Z,10.23
2023-03-05T22:28:42.479Z,12.00
2023-03-05T22:31:10.579Z,11.70
2023-03-05T22:33:39.776Z,11.63
2023-03-05T22:36:11.998Z,12.07
2023-03-05T22:38:39.926Z,12.73
2023-03-05T22:41:09.056Z,11.70
2023-03-05T22:43:37.142Z,13.57
2023-03-05T22:46:12.010Z,12.50
2023-03-05T22:48:41.148Z,13.13
2023-03-05T22:51:09.499Z,13.30
2023-03-05T22:53:37.082Z,12.30
2023-03-05T22:56:08.806Z,12.37
2023-03-05T22:58:36.769Z,12.77
2023-03-05T23:01:04.504Z,13.80
2023-03-05T23:03:32.120Z,12.47
2023-03-05T23:06:01.024Z,12.40
2023-03-05T23:08:28.877Z,11.63
2023-03-05T23:10:56.515Z,12.20
2023-03-05T23:13:24.159Z,12.97
2023-03-05T23:15:51.786Z,12.40
2023-03-05T23:18:19.422Z,13.50
2023-03-05T23:20:46.971Z,13.13
2023-03-05T23:23:15.814Z,14.17
2023-03-05T23:25:43.434Z,14.60
2023-03-05T23:28:10.984Z,13.43
2023-03-05T23:30:39.489Z,12.53
2023-03-05T23:33:09.019Z,13.20
2023-03-05T23:35:38.151Z,12.77
2023-03-05T23:38:08.480Z,12.60
2023-03-05T23:40:41.614Z,12.80
2023-03-05T23:43:10.186Z,12.90
2023-03-05T23:45:38.222Z,11.30
2023-03-05T23:48:06.005Z,11.27
2023-03-05T23:50:36.383Z,11.40
2023-03-05T23:53:04.690Z,11.13
2023-03-05T23:55:34.052Z,11.10
2023-03-05T23:58:03.453Z,9.90
